Terminal Aerodrome Forecast
Issued by NWS Wakefield, VA

Home | Current Version | Previous Version | Text Only | Print | Product List | Glossary On
Versions: 1 2 3 4 5 6 7 8 9 10 11 12 13 14
910
FTUS41 KAKQ 082343
TAFRIC
TAF
KRIC 082343Z 0900/0924 14006KT P6SM OVC060
     FM090200 12005KT 5SM -RA BR SCT012 BKN020
     FM090500 22005KT 5SM BR BKN012
     FM091100 28008KT P6SM SCT015 BKN080
     FM091600 27012G17KT P6SM BKN035=

USA.gov is the U.S. government's official web portal to all federal, state and local government web resources and services.